sensor_id;sensor_type;location;lat;lon;timestamp;P1;durP1;ratioP1;P2;durP2;ratioP2
18302;SDS011;9277;37.980;23.748;2023-07-13T00:00:46;9.20;;;6.07;;
18302;SDS011;9277;37.980;23.748;2023-07-13T00:03:12;8.30;;;5.55;;
18302;SDS011;9277;37.980;23.748;2023-07-13T00:05:41;9.23;;;5.57;;
18302;SDS011;9277;37.980;23.748;2023-07-13T00:08:07;7.75;;;5.45;;
18302;SDS011;9277;37.980;23.748;2023-07-13T00:10:38;7.57;;;5.32;;
18302;SDS011;9277;37.980;23.748;2023-07-13T00:13:05;7.72;;;5.07;;
18302;SDS011;9277;37.980;23.748;2023-07-13T00:15:32;8.68;;;5.97;;
18302;SDS011;9277;37.980;23.748;2023-07-13T00:18:00;10.18;;;5.78;;
18302;SDS011;9277;37.980;23.748;2023-07-13T00:20:27;8.63;;;5.95;;
18302;SDS011;9277;37.980;23.748;2023-07-13T00:22:55;9.93;;;6.15;;
18302;SDS011;9277;37.980;23.748;2023-07-13T00:25:22;12.63;;;6.57;;
18302;SDS011;9277;37.980;23.748;2023-07-13T00:27:53;11.05;;;6.53;;
18302;SDS011;9277;37.980;23.748;2023-07-13T00:30:20;12.65;;;6.55;;
18302;SDS011;9277;37.980;23.748;2023-07-13T00:32:47;7.97;;;6.10;;
18302;SDS011;9277;37.980;23.748;2023-07-13T00:35:14;9.43;;;6.40;;
18302;SDS011;9277;37.980;23.748;2023-07-13T00:37:41;10.18;;;6.75;;
18302;SDS011;9277;37.980;23.748;2023-07-13T00:40:10;8.57;;;6.07;;
18302;SDS011;9277;37.980;23.748;2023-07-13T00:42:37;16.52;;;7.13;;
18302;SDS011;9277;37.980;23.748;2023-07-13T00:45:05;10.05;;;6.40;;
18302;SDS011;9277;37.980;23.748;2023-07-13T00:47:32;10.73;;;6.80;;
18302;SDS011;9277;37.980;23.748;2023-07-13T00:49:59;8.93;;;6.72;;
18302;SDS011;9277;37.980;23.748;2023-07-13T00:52:26;13.60;;;7.40;;
18302;SDS011;9277;37.980;23.748;2023-07-13T00:54:53;14.85;;;7.75;;
18302;SDS011;9277;37.980;23.748;2023-07-13T00:57:22;11.02;;;7.53;;
18302;SDS011;9277;37.980;23.748;2023-07-13T00:59:50;10.32;;;6.60;;
18302;SDS011;9277;37.980;23.748;2023-07-13T01:02:18;12.80;;;7.57;;
18302;SDS011;9277;37.980;23.748;2023-07-13T01:04:46;11.32;;;7.15;;
18302;SDS011;9277;37.980;23.748;2023-07-13T01:07:13;9.85;;;7.03;;
18302;SDS011;9277;37.980;23.748;2023-07-13T01:09:40;12.90;;;7.32;;
18302;SDS011;9277;37.980;23.748;2023-07-13T01:12:07;13.98;;;7.22;;
18302;SDS011;9277;37.980;23.748;2023-07-13T01:14:35;10.73;;;7.20;;
18302;SDS011;9277;37.980;23.748;2023-07-13T01:17:02;14.43;;;7.03;;
18302;SDS011;9277;37.980;23.748;2023-07-13T01:19:33;13.32;;;7.07;;
18302;SDS011;9277;37.980;23.748;2023-07-13T01:22:03;12.75;;;7.30;;
18302;SDS011;9277;37.980;23.748;2023-07-13T01:24:33;12.20;;;7.18;;
18302;SDS011;9277;37.980;23.748;2023-07-13T01:27:00;12.90;;;7.63;;
18302;SDS011;9277;37.980;23.748;2023-07-13T01:29:27;9.77;;;7.32;;
18302;SDS011;9277;37.980;23.748;2023-07-13T01:31:53;11.05;;;6.82;;
18302;SDS011;9277;37.980;23.748;2023-07-13T01:34:20;10.77;;;6.75;;
18302;SDS011;9277;37.980;23.748;2023-07-13T01:36:47;8.93;;;6.43;;
18302;SDS011;9277;37.980;23.748;2023-07-13T01:39:15;15.48;;;7.45;;
18302;SDS011;9277;37.980;23.748;2023-07-13T01:41:42;18.15;;;6.78;;
18302;SDS011;9277;37.980;23.748;2023-07-13T01:44:08;13.45;;;7.50;;
18302;SDS011;9277;37.980;23.748;2023-07-13T01:46:35;11.52;;;6.88;;
18302;SDS011;9277;37.980;23.748;2023-07-13T01:49:02;10.77;;;7.00;;
18302;SDS011;9277;37.980;23.748;2023-07-13T01:51:29;8.63;;;6.20;;
18302;SDS011;9277;37.980;23.748;2023-07-13T01:53:55;8.07;;;6.30;;
18302;SDS011;9277;37.980;23.748;2023-07-13T01:56:23;13.00;;;6.90;;
18302;SDS011;9277;37.980;23.748;2023-07-13T01:58:50;11.98;;;6.72;;
18302;SDS011;9277;37.980;23.748;2023-07-13T02:01:18;12.52;;;6.97;;
18302;SDS011;9277;37.980;23.748;2023-07-13T02:03:45;10.10;;;7.00;;
18302;SDS011;9277;37.980;23.748;2023-07-13T02:06:11;11.20;;;6.78;;
18302;SDS011;9277;37.980;23.748;2023-07-13T02:08:37;12.18;;;6.20;;
18302;SDS011;9277;37.980;23.748;2023-07-13T02:11:04;13.80;;;6.65;;
18302;SDS011;9277;37.980;23.748;2023-07-13T02:13:32;8.18;;;6.35;;
18302;SDS011;9277;37.980;23.748;2023-07-13T02:15:59;12.75;;;6.32;;
18302;SDS011;9277;37.980;23.748;2023-07-13T02:18:26;13.27;;;6.43;;
18302;SDS011;9277;37.980;23.748;2023-07-13T02:20:53;7.47;;;5.85;;
18302;SDS011;9277;37.980;23.748;2023-07-13T02:23:20;8.68;;;6.32;;
18302;SDS011;9277;37.980;23.748;2023-07-13T02:25:46;11.82;;;6.65;;
18302;SDS011;9277;37.980;23.748;2023-07-13T02:28:13;10.88;;;6.88;;
18302;SDS011;9277;37.980;23.748;2023-07-13T02:30:41;9.45;;;6.80;;
18302;SDS011;9277;37.980;23.748;2023-07-13T02:33:08;11.35;;;6.68;;
18302;SDS011;9277;37.980;23.748;2023-07-13T02:35:34;8.88;;;6.03;;
18302;SDS011;9277;37.980;23.748;2023-07-13T02:38:01;9.50;;;6.10;;
18302;SDS011;9277;37.980;23.748;2023-07-13T02:40:28;8.70;;;6.35;;
18302;SDS011;9277;37.980;23.748;2023-07-13T02:42:58;9.82;;;6.10;;
18302;SDS011;9277;37.980;23.748;2023-07-13T02:45:24;12.93;;;6.22;;
18302;SDS011;9277;37.980;23.748;2023-07-13T02:47:53;10.50;;;6.43;;
18302;SDS011;9277;37.980;23.748;2023-07-13T02:50:20;14.07;;;6.45;;
18302;SDS011;9277;37.980;23.748;2023-07-13T02:52:47;14.10;;;6.45;;
18302;SDS011;9277;37.980;23.748;2023-07-13T02:55:14;9.57;;;5.97;;
18302;SDS011;9277;37.980;23.748;2023-07-13T02:57:40;21.25;;;7.70;;
18302;SDS011;9277;37.980;23.748;2023-07-13T03:00:08;7.53;;;5.68;;
18302;SDS011;9277;37.980;23.748;2023-07-13T03:02:35;11.70;;;6.55;;
18302;SDS011;9277;37.980;23.748;2023-07-13T03:05:03;11.07;;;6.10;;
18302;SDS011;9277;37.980;23.748;2023-07-13T03:07:30;12.02;;;6.25;;
18302;SDS011;9277;37.980;23.748;2023-07-13T03:09:57;9.43;;;6.28;;
18302;SDS011;9277;37.980;23.748;2023-07-13T03:12:24;7.88;;;6.00;;
18302;SDS011;9277;37.980;23.748;2023-07-13T03:14:51;8.25;;;6.10;;
18302;SDS011;9277;37.980;23.748;2023-07-13T03:17:18;10.38;;;5.80;;
18302;SDS011;9277;37.980;23.748;2023-07-13T03:19:45;10.23;;;6.03;;
18302;SDS011;9277;37.980;23.748;2023-07-13T03:22:16;16.80;;;6.43;;
18302;SDS011;9277;37.980;23.748;2023-07-13T03:24:43;8.15;;;5.88;;
18302;SDS011;9277;37.980;23.748;2023-07-13T03:27:09;11.30;;;6.65;;
18302;SDS011;9277;37.980;23.748;2023-07-13T03:29:36;23.75;;;7.35;;
18302;SDS011;9277;37.980;23.748;2023-07-13T03:32:08;9.57;;;6.25;;
18302;SDS011;9277;37.980;23.748;2023-07-13T03:34:35;9.75;;;6.20;;
18302;SDS011;9277;37.980;23.748;2023-07-13T03:37:02;12.88;;;7.25;;
18302;SDS011;9277;37.980;23.748;2023-07-13T03:39:30;13.52;;;7.43;;
18302;SDS011;9277;37.980;23.748;2023-07-13T03:41:57;11.52;;;7.13;;
18302;SDS011;9277;37.980;23.748;2023-07-13T03:44:25;12.18;;;7.35;;
18302;SDS011;9277;37.980;23.748;2023-07-13T03:46:51;13.63;;;6.47;;
18302;SDS011;9277;37.980;23.748;2023-07-13T03:49:18;9.35;;;6.20;;
18302;SDS011;9277;37.980;23.748;2023-07-13T03:51:45;9.65;;;6.75;;
18302;SDS011;9277;37.980;23.748;2023-07-13T03:54:12;9.38;;;6.63;;
18302;SDS011;9277;37.980;23.748;2023-07-13T03:56:40;15.48;;;7.22;;
18302;SDS011;9277;37.980;23.748;2023-07-13T03:59:07;12.70;;;7.25;;
18302;SDS011;9277;37.980;23.748;2023-07-13T04:01:34;8.90;;;6.50;;
18302;SDS011;9277;37.980;23.748;2023-07-13T04:04:01;12.50;;;6.85;;
18302;SDS011;9277;37.980;23.748;2023-07-13T04:06:28;10.40;;;6.68;;
18302;SDS011;9277;37.980;23.748;2023-07-13T04:08:56;11.65;;;6.80;;
18302;SDS011;9277;37.980;23.748;2023-07-13T04:11:24;14.52;;;7.68;;
18302;SDS011;9277;37.980;23.748;2023-07-13T04:13:52;11.00;;;6.82;;
18302;SDS011;9277;37.980;23.748;2023-07-13T04:16:19;9.88;;;7.03;;
18302;SDS011;9277;37.980;23.748;2023-07-13T04:18:46;11.57;;;6.35;;
18302;SDS011;9277;37.980;23.748;2023-07-13T04:21:14;13.32;;;7.20;;
18302;SDS011;9277;37.980;23.748;2023-07-13T04:23:41;11.85;;;7.10;;
18302;SDS011;9277;37.980;23.748;2023-07-13T04:26:08;11.15;;;7.13;;
18302;SDS011;9277;37.980;23.748;2023-07-13T04:28:35;11.50;;;6.97;;
18302;SDS011;9277;37.980;23.748;2023-07-13T04:31:03;16.67;;;7.10;;
18302;SDS011;9277;37.980;23.748;2023-07-13T04:33:30;10.57;;;6.80;;
18302;SDS011;9277;37.980;23.748;2023-07-13T04:35:57;15.05;;;7.55;;
18302;SDS011;9277;37.980;23.748;2023-07-13T04:38:25;13.48;;;7.50;;
18302;SDS011;9277;37.980;23.748;2023-07-13T04:40:54;14.10;;;7.68;;
18302;SDS011;9277;37.980;23.748;2023-07-13T04:43:21;12.63;;;7.70;;
18302;SDS011;9277;37.980;23.748;2023-07-13T04:45:47;12.10;;;8.07;;
18302;SDS011;9277;37.980;23.748;2023-07-13T04:48:15;10.40;;;7.00;;
18302;SDS011;9277;37.980;23.748;2023-07-13T04:50:42;13.88;;;7.15;;
18302;SDS011;9277;37.980;23.748;2023-07-13T04:53:09;14.82;;;7.20;;
18302;SDS011;9277;37.980;23.748;2023-07-13T04:55:36;17.77;;;6.95;;
18302;SDS011;9277;37.980;23.748;2023-07-13T04:58:04;10.82;;;6.90;;
18302;SDS011;9277;37.980;23.748;2023-07-13T05:00:31;12.52;;;7.35;;
18302;SDS011;9277;37.980;23.748;2023-07-13T05:02:58;12.95;;;7.25;;
18302;SDS011;9277;37.980;23.748;2023-07-13T05:05:26;12.93;;;7.55;;
18302;SDS011;9277;37.980;23.748;2023-07-13T05:07:53;14.00;;;8.15;;
18302;SDS011;9277;37.980;23.748;2023-07-13T05:10:20;14.68;;;8.75;;
18302;SDS011;9277;37.980;23.748;2023-07-13T05:12:47;13.80;;;7.00;;
18302;SDS011;9277;37.980;23.748;2023-07-13T05:15:14;14.95;;;8.23;;
18302;SDS011;9277;37.980;23.748;2023-07-13T05:17:41;13.15;;;7.60;;
18302;SDS011;9277;37.980;23.748;2023-07-13T05:20:08;15.10;;;7.50;;
18302;SDS011;9277;37.980;23.748;2023-07-13T05:22:36;15.00;;;8.00;;
18302;SDS011;9277;37.980;23.748;2023-07-13T05:25:04;15.00;;;7.53;;
18302;SDS011;9277;37.980;23.748;2023-07-13T05:27:31;16.73;;;7.22;;
18302;SDS011;9277;37.980;23.748;2023-07-13T05:29:58;17.20;;;7.88;;
18302;SDS011;9277;37.980;23.748;2023-07-13T05:32:25;13.43;;;7.25;;
18302;SDS011;9277;37.980;23.748;2023-07-13T05:34:52;13.10;;;8.35;;
18302;SDS011;9277;37.980;23.748;2023-07-13T05:37:18;14.88;;;7.63;;
18302;SDS011;9277;37.980;23.748;2023-07-13T05:39:46;16.08;;;8.30;;
18302;SDS011;9277;37.980;23.748;2023-07-13T05:42:13;14.43;;;8.23;;
18302;SDS011;9277;37.980;23.748;2023-07-13T05:44:40;19.85;;;8.30;;
18302;SDS011;9277;37.980;23.748;2023-07-13T05:47:07;21.70;;;7.40;;
18302;SDS011;9277;37.980;23.748;2023-07-13T05:49:34;14.85;;;8.02;;
18302;SDS011;9277;37.980;23.748;2023-07-13T05:52:00;16.85;;;7.38;;
18302;SDS011;9277;37.980;23.748;2023-07-13T05:54:27;13.30;;;7.78;;
18302;SDS011;9277;37.980;23.748;2023-07-13T05:56:56;10.90;;;7.53;;
18302;SDS011;9277;37.980;23.748;2023-07-13T05:59:23;16.85;;;6.88;;
18302;SDS011;9277;37.980;23.748;2023-07-13T06:01:50;15.13;;;7.13;;
18302;SDS011;9277;37.980;23.748;2023-07-13T06:04:18;12.68;;;6.80;;
18302;SDS011;9277;37.980;23.748;2023-07-13T06:06:45;11.73;;;6.70;;
18302;SDS011;9277;37.980;23.748;2023-07-13T06:09:12;12.65;;;7.47;;
18302;SDS011;9277;37.980;23.748;2023-07-13T06:11:38;16.42;;;8.05;;
18302;SDS011;9277;37.980;23.748;2023-07-13T06:14:07;13.95;;;7.40;;
18302;SDS011;9277;37.980;23.748;2023-07-13T06:16:33;21.15;;;8.45;;
18302;SDS011;9277;37.980;23.748;2023-07-13T06:19:00;17.25;;;7.55;;
18302;SDS011;9277;37.980;23.748;2023-07-13T06:21:27;17.48;;;8.07;;
18302;SDS011;9277;37.980;23.748;2023-07-13T06:23:54;12.88;;;7.65;;
18302;SDS011;9277;37.980;23.748;2023-07-13T06:26:21;13.25;;;7.78;;
18302;SDS011;9277;37.980;23.748;2023-07-13T06:28:48;15.23;;;7.50;;
18302;SDS011;9277;37.980;23.748;2023-07-13T06:31:16;21.58;;;8.45;;
18302;SDS011;9277;37.980;23.748;2023-07-13T06:33:43;15.93;;;8.02;;
18302;SDS011;9277;37.980;23.748;2023-07-13T06:36:10;17.13;;;7.88;;
18302;SDS011;9277;37.980;23.748;2023-07-13T06:38:37;14.65;;;7.97;;
18302;SDS011;9277;37.980;23.748;2023-07-13T06:41:06;15.43;;;8.23;;
18302;SDS011;9277;37.980;23.748;2023-07-13T06:43:33;12.55;;;7.55;;
18302;SDS011;9277;37.980;23.748;2023-07-13T06:45:59;19.08;;;7.82;;
18302;SDS011;9277;37.980;23.748;2023-07-13T06:48:28;14.50;;;8.07;;
18302;SDS011;9277;37.980;23.748;2023-07-13T06:50:54;16.88;;;8.55;;
18302;SDS011;9277;37.980;23.748;2023-07-13T06:53:21;19.75;;;8.63;;
18302;SDS011;9277;37.980;23.748;2023-07-13T06:55:48;19.10;;;8.98;;
18302;SDS011;9277;37.980;23.748;2023-07-13T06:58:16;16.77;;;8.52;;
18302;SDS011;9277;37.980;23.748;2023-07-13T07:00:43;15.50;;;8.07;;
18302;SDS011;9277;37.980;23.748;2023-07-13T07:03:10;16.30;;;7.68;;
18302;SDS011;9277;37.980;23.748;2023-07-13T07:05:38;15.75;;;8.18;;
18302;SDS011;9277;37.980;23.748;2023-07-13T07:08:05;20.38;;;8.90;;
18302;SDS011;9277;37.980;23.748;2023-07-13T07:10:31;16.42;;;8.63;;
18302;SDS011;9277;37.980;23.748;2023-07-13T07:12:58;18.48;;;8.20;;
18302;SDS011;9277;37.980;23.748;2023-07-13T07:15:25;24.52;;;9.55;;
18302;SDS011;9277;37.980;23.748;2023-07-13T07:17:52;28.20;;;8.32;;
18302;SDS011;9277;37.980;23.748;2023-07-13T07:20:19;14.50;;;8.40;;
18302;SDS011;9277;37.980;23.748;2023-07-13T07:22:50;18.50;;;8.68;;
18302;SDS011;9277;37.980;23.748;2023-07-13T07:25:16;18.00;;;8.30;;
18302;SDS011;9277;37.980;23.748;2023-07-13T07:27:43;13.15;;;7.60;;
18302;SDS011;9277;37.980;23.748;2023-07-13T07:30:10;19.45;;;7.78;;
18302;SDS011;9277;37.980;23.748;2023-07-13T07:32:37;17.92;;;8.10;;
18302;SDS011;9277;37.980;23.748;2023-07-13T07:35:04;16.67;;;8.27;;
18302;SDS011;9277;37.980;23.748;2023-07-13T07:37:31;15.55;;;8.10;;
18302;SDS011;9277;37.980;23.748;2023-07-13T07:39:59;14.48;;;7.68;;
18302;SDS011;9277;37.980;23.748;2023-07-13T07:42:26;16.08;;;7.68;;
18302;SDS011;9277;37.980;23.748;2023-07-13T07:44:53;16.90;;;8.13;;
18302;SDS011;9277;37.980;23.748;2023-07-13T07:47:20;17.10;;;7.80;;
18302;SDS011;9277;37.980;23.748;2023-07-13T07:49:48;19.60;;;7.97;;
18302;SDS011;9277;37.980;23.748;2023-07-13T07:52:14;14.52;;;7.95;;
18302;SDS011;9277;37.980;23.748;2023-07-13T07:54:41;14.52;;;7.78;;
18302;SDS011;9277;37.980;23.748;2023-07-13T07:57:09;16.92;;;7.93;;
18302;SDS011;9277;37.980;23.748;2023-07-13T07:59:36;13.02;;;7.50;;
18302;SDS011;9277;37.980;23.748;2023-07-13T08:02:03;15.60;;;7.68;;
18302;SDS011;9277;37.980;23.748;2023-07-13T08:04:30;14.77;;;7.35;;
18302;SDS011;9277;37.980;23.748;2023-07-13T08:06:57;17.48;;;8.00;;
18302;SDS011;9277;37.980;23.748;2023-07-13T08:09:24;15.02;;;7.57;;
18302;SDS011;9277;37.980;23.748;2023-07-13T08:11:50;14.93;;;7.85;;
18302;SDS011;9277;37.980;23.748;2023-07-13T08:14:19;21.13;;;8.25;;
18302;SDS011;9277;37.980;23.748;2023-07-13T08:16:45;16.27;;;8.38;;
18302;SDS011;9277;37.980;23.748;2023-07-13T08:19:12;14.25;;;8.38;;
18302;SDS011;9277;37.980;23.748;2023-07-13T08:21:39;16.27;;;7.82;;
18302;SDS011;9277;37.980;23.748;2023-07-13T08:24:07;14.88;;;8.75;;
18302;SDS011;9277;37.980;23.748;2023-07-13T08:26:34;18.25;;;7.93;;
18302;SDS011;9277;37.980;23.748;2023-07-13T08:29:00;15.35;;;8.70;;
18302;SDS011;9277;37.980;23.748;2023-07-13T08:31:29;20.77;;;7.93;;
18302;SDS011;9277;37.980;23.748;2023-07-13T08:33:56;23.70;;;8.95;;
18302;SDS011;9277;37.980;23.748;2023-07-13T08:36:25;14.55;;;8.32;;
18302;SDS011;9277;37.980;23.748;2023-07-13T08:38:52;19.35;;;9.38;;
18302;SDS011;9277;37.980;23.748;2023-07-13T08:41:19;14.40;;;9.23;;
18302;SDS011;9277;37.980;23.748;2023-07-13T08:43:47;12.13;;;7.85;;
18302;SDS011;9277;37.980;23.748;2023-07-13T08:46:16;18.48;;;8.52;;
18302;SDS011;9277;37.980;23.748;2023-07-13T08:48:46;12.95;;;7.70;;
18302;SDS011;9277;37.980;23.748;2023-07-13T08:51:20;14.63;;;8.15;;
18302;SDS011;9277;37.980;23.748;2023-07-13T08:53:48;13.85;;;7.95;;
18302;SDS011;9277;37.980;23.748;2023-07-13T08:56:16;15.23;;;9.55;;
18302;SDS011;9277;37.980;23.748;2023-07-13T08:58:44;11.27;;;7.88;;
18302;SDS011;9277;37.980;23.748;2023-07-13T09:01:13;15.02;;;8.57;;
18302;SDS011;9277;37.980;23.748;2023-07-13T09:03:46;15.63;;;8.18;;
18302;SDS011;9277;37.980;23.748;2023-07-13T09:06:16;14.25;;;8.45;;
18302;SDS011;9277;37.980;23.748;2023-07-13T09:08:46;15.35;;;8.45;;
18302;SDS011;9277;37.980;23.748;2023-07-13T09:11:18;16.88;;;8.05;;
18302;SDS011;9277;37.980;23.748;2023-07-13T09:13:49;14.13;;;8.07;;
18302;SDS011;9277;37.980;23.748;2023-07-13T09:16:18;14.85;;;7.82;;
18302;SDS011;9277;37.980;23.748;2023-07-13T09:18:46;14.70;;;7.60;;
18302;SDS011;9277;37.980;23.748;2023-07-13T09:21:15;17.02;;;7.78;;
18302;SDS011;9277;37.980;23.748;2023-07-13T09:23:45;13.90;;;8.90;;
18302;SDS011;9277;37.980;23.748;2023-07-13T09:26:13;13.23;;;8.60;;
18302;SDS011;9277;37.980;23.748;2023-07-13T09:28:41;13.88;;;8.18;;
18302;SDS011;9277;37.980;23.748;2023-07-13T09:31:10;17.13;;;8.45;;
18302;SDS011;9277;37.980;23.748;2023-07-13T09:33:38;11.60;;;7.57;;
18302;SDS011;9277;37.980;23.748;2023-07-13T09:36:14;14.45;;;8.50;;
18302;SDS011;9277;37.980;23.748;2023-07-13T09:38:43;12.48;;;8.10;;
18302;SDS011;9277;37.980;23.748;2023-07-13T09:41:14;10.75;;;7.72;;
18302;SDS011;9277;37.980;23.748;2023-07-13T09:46:25;11.95;;;8.00;;
18302;SDS011;9277;37.980;23.748;2023-07-13T09:48:52;16.95;;;8.55;;
18302;SDS011;9277;37.980;23.748;2023-07-13T09:51:19;14.80;;;8.38;;
18302;SDS011;9277;37.980;23.748;2023-07-13T09:53:46;13.60;;;8.43;;
18302;SDS011;9277;37.980;23.748;2023-07-13T09:56:23;13.95;;;8.38;;
18302;SDS011;9277;37.980;23.748;2023-07-13T09:58:50;17.27;;;8.50;;
18302;SDS011;9277;37.980;23.748;2023-07-13T10:01:18;16.23;;;8.77;;
18302;SDS011;9277;37.980;23.748;2023-07-13T10:03:57;16.42;;;8.70;;
18302;SDS011;9277;37.980;23.748;2023-07-13T10:06:23;11.85;;;7.97;;
18302;SDS011;9277;37.980;23.748;2023-07-13T10:08:51;16.55;;;8.38;;
18302;SDS011;9277;37.980;23.748;2023-07-13T10:11:19;17.08;;;8.32;;
18302;SDS011;9277;37.980;23.748;2023-07-13T10:13:50;13.30;;;7.78;;
18302;SDS011;9277;37.980;23.748;2023-07-13T10:16:17;14.02;;;8.60;;
18302;SDS011;9277;37.980;23.748;2023-07-13T10:18:46;13.05;;;8.73;;
18302;SDS011;9277;37.980;23.748;2023-07-13T10:21:15;13.27;;;8.10;;
18302;SDS011;9277;37.980;23.748;2023-07-13T10:23:43;13.65;;;8.32;;
18302;SDS011;9277;37.980;23.748;2023-07-13T10:26:13;14.35;;;8.60;;
18302;SDS011;9277;37.980;23.748;2023-07-13T10:28:42;22.73;;;8.35;;
18302;SDS011;9277;37.980;23.748;2023-07-13T10:31:14;14.25;;;8.52;;
18302;SDS011;9277;37.980;23.748;2023-07-13T10:33:41;17.20;;;9.45;;
18302;SDS011;9277;37.980;23.748;2023-07-13T10:36:12;16.08;;;8.77;;
18302;SDS011;9277;37.980;23.748;2023-07-13T10:38:40;12.50;;;8.00;;
18302;SDS011;9277;37.980;23.748;2023-07-13T10:41:07;12.68;;;7.70;;
18302;SDS011;9277;37.980;23.748;2023-07-13T10:43:39;12.07;;;7.55;;
18302;SDS011;9277;37.980;23.748;2023-07-13T10:46:08;12.48;;;7.78;;
18302;SDS011;9277;37.980;23.748;2023-07-13T10:48:37;16.42;;;8.43;;
18302;SDS011;9277;37.980;23.748;2023-07-13T10:51:05;22.88;;;8.57;;
18302;SDS011;9277;37.980;23.748;2023-07-13T10:53:33;14.57;;;8.55;;
18302;SDS011;9277;37.980;23.748;2023-07-13T10:56:01;16.02;;;8.63;;
18302;SDS011;9277;37.980;23.748;2023-07-13T10:58:34;19.45;;;8.10;;
18302;SDS011;9277;37.980;23.748;2023-07-13T11:01:07;17.95;;;7.85;;
18302;SDS011;9277;37.980;23.748;2023-07-13T11:03:35;13.55;;;7.78;;
18302;SDS011;9277;37.980;23.748;2023-07-13T11:06:09;12.95;;;7.30;;
18302;SDS011;9277;37.980;23.748;2023-07-13T11:08:38;12.07;;;7.97;;
18302;SDS011;9277;37.980;23.748;2023-07-13T11:13:56;15.18;;;7.32;;
18302;SDS011;9277;37.980;23.748;2023-07-13T11:16:33;15.93;;;8.45;;
18302;SDS011;9277;37.980;23.748;2023-07-13T11:19:18;12.05;;;7.60;;
18302;SDS011;9277;37.980;23.748;2023-07-13T11:22:11;12.60;;;7.68;;
18302;SDS011;9277;37.980;23.748;2023-07-13T11:24:48;12.77;;;7.60;;
18302;SDS011;9277;37.980;23.748;2023-07-13T11:27:21;13.48;;;7.32;;
18302;SDS011;9277;37.980;23.748;2023-07-13T11:29:48;11.00;;;7.80;;
18302;SDS011;9277;37.980;23.748;2023-07-13T11:32:21;12.05;;;7.72;;
18302;SDS011;9277;37.980;23.748;2023-07-13T11:34:52;17.13;;;7.55;;
18302;SDS011;9277;37.980;23.748;2023-07-13T11:37:21;12.52;;;7.85;;
18302;SDS011;9277;37.980;23.748;2023-07-13T11:39:48;12.15;;;8.00;;
18302;SDS011;9277;37.980;23.748;2023-07-13T11:42:17;14.65;;;7.93;;
18302;SDS011;9277;37.980;23.748;2023-07-13T11:44:45;22.63;;;8.52;;
18302;SDS011;9277;37.980;23.748;2023-07-13T11:47:14;13.70;;;7.90;;
18302;SDS011;9277;37.980;23.748;2023-07-13T11:49:47;11.00;;;7.65;;
18302;SDS011;9277;37.980;23.748;2023-07-13T11:52:15;14.55;;;9.18;;
18302;SDS011;9277;37.980;23.748;2023-07-13T11:54:46;15.18;;;7.55;;
18302;SDS011;9277;37.980;23.748;2023-07-13T11:57:19;17.45;;;7.55;;
18302;SDS011;9277;37.980;23.748;2023-07-13T11:59:49;12.20;;;7.45;;
18302;SDS011;9277;37.980;23.748;2023-07-13T12:02:17;10.40;;;7.28;;
18302;SDS011;9277;37.980;23.748;2023-07-13T12:04:49;12.65;;;6.88;;
18302;SDS011;9277;37.980;23.748;2023-07-13T12:07:17;10.30;;;6.95;;
18302;SDS011;9277;37.980;23.748;2023-07-13T12:09:46;11.95;;;7.20;;
18302;SDS011;9277;37.980;23.748;2023-07-13T12:12:17;16.38;;;7.28;;
18302;SDS011;9277;37.980;23.748;2023-07-13T12:14:44;16.73;;;8.10;;
18302;SDS011;9277;37.980;23.748;2023-07-13T12:17:13;11.23;;;7.20;;
18302;SDS011;9277;37.980;23.748;2023-07-13T12:19:41;10.48;;;7.20;;
18302;SDS011;9277;37.980;23.748;2023-07-13T12:22:08;12.63;;;6.78;;
18302;SDS011;9277;37.980;23.748;2023-07-13T12:24:35;11.50;;;7.07;;
18302;SDS011;9277;37.980;23.748;2023-07-13T12:27:04;13.00;;;7.28;;
18302;SDS011;9277;37.980;23.748;2023-07-13T12:29:31;10.48;;;6.97;;
18302;SDS011;9277;37.980;23.748;2023-07-13T12:31:59;15.27;;;6.53;;
18302;SDS011;9277;37.980;23.748;2023-07-13T12:34:26;8.93;;;6.78;;
18302;SDS011;9277;37.980;23.748;2023-07-13T12:36:54;16.10;;;7.43;;
18302;SDS011;9277;37.980;23.748;2023-07-13T12:39:22;17.23;;;7.50;;
18302;SDS011;9277;37.980;23.748;2023-07-13T12:41:49;12.23;;;7.35;;
18302;SDS011;9277;37.980;23.748;2023-07-13T12:44:18;11.35;;;7.03;;
18302;SDS011;9277;37.980;23.748;2023-07-13T12:46:55;14.02;;;7.00;;
18302;SDS011;9277;37.980;23.748;2023-07-13T12:49:24;10.13;;;6.85;;
18302;SDS011;9277;37.980;23.748;2023-07-13T12:51:50;13.73;;;6.28;;
18302;SDS011;9277;37.980;23.748;2023-07-13T12:54:22;11.90;;;6.45;;
18302;SDS011;9277;37.980;23.748;2023-07-13T12:56:49;17.83;;;6.95;;
18302;SDS011;9277;37.980;23.748;2023-07-13T12:59:19;10.65;;;6.82;;
18302;SDS011;9277;37.980;23.748;2023-07-13T13:01:46;13.00;;;6.88;;
18302;SDS011;9277;37.980;23.748;2023-07-13T13:04:15;11.10;;;6.63;;
18302;SDS011;9277;37.980;23.748;2023-07-13T13:06:46;11.45;;;7.03;;
18302;SDS011;9277;37.980;23.748;2023-07-13T13:09:13;15.95;;;6.75;;
18302;SDS011;9277;37.980;23.748;2023-07-13T13:11:41;12.35;;;7.30;;
18302;SDS011;9277;37.980;23.748;2023-07-13T13:14:08;9.48;;;6.65;;
18302;SDS011;9277;37.980;23.748;2023-07-13T13:16:37;9.40;;;6.07;;
18302;SDS011;9277;37.980;23.748;2023-07-13T13:19:10;12.45;;;6.82;;
18302;SDS011;9277;37.980;23.748;2023-07-13T13:21:38;13.20;;;7.03;;
18302;SDS011;9277;37.980;23.748;2023-07-13T13:24:08;11.30;;;6.65;;
18302;SDS011;9277;37.980;23.748;2023-07-13T13:26:36;10.73;;;6.90;;
18302;SDS011;9277;37.980;23.748;2023-07-13T13:29:08;9.27;;;6.40;;
18302;SDS011;9277;37.980;23.748;2023-07-13T13:31:37;13.23;;;6.60;;
18302;SDS011;9277;37.980;23.748;2023-07-13T13:34:04;11.95;;;6.70;;
18302;SDS011;9277;37.980;23.748;2023-07-13T13:36:33;9.85;;;6.43;;
18302;SDS011;9277;37.980;23.748;2023-07-13T13:39:00;12.27;;;6.00;;
18302;SDS011;9277;37.980;23.748;2023-07-13T13:41:27;8.73;;;5.80;;
18302;SDS011;9277;37.980;23.748;2023-07-13T13:43:54;12.90;;;5.90;;
18302;SDS011;9277;37.980;23.748;2023-07-13T13:46:21;12.88;;;6.88;;
18302;SDS011;9277;37.980;23.748;2023-07-13T13:48:51;10.55;;;5.95;;
18302;SDS011;9277;37.980;23.748;2023-07-13T13:51:18;8.65;;;6.18;;
18302;SDS011;9277;37.980;23.748;2023-07-13T13:53:46;10.88;;;6.80;;
18302;SDS011;9277;37.980;23.748;2023-07-13T13:56:13;9.52;;;6.80;;
18302;SDS011;9277;37.980;23.748;2023-07-13T13:58:39;10.65;;;6.30;;
18302;SDS011;9277;37.980;23.748;2023-07-13T14:01:10;9.57;;;6.20;;
18302;SDS011;9277;37.980;23.748;2023-07-13T14:03:39;7.78;;;6.15;;
18302;SDS011;9277;37.980;23.748;2023-07-13T14:06:08;8.98;;;6.43;;
18302;SDS011;9277;37.980;23.748;2023-07-13T14:08:37;11.90;;;6.90;;
18302;SDS011;9277;37.980;23.748;2023-07-13T14:11:04;10.38;;;6.60;;
18302;SDS011;9277;37.980;23.748;2023-07-13T14:13:32;16.25;;;7.18;;
18302;SDS011;9277;37.980;23.748;2023-07-13T14:16:01;10.10;;;7.22;;
18302;SDS011;9277;37.980;23.748;2023-07-13T14:18:28;13.43;;;6.55;;
18302;SDS011;9277;37.980;23.748;2023-07-13T14:20:54;13.73;;;7.15;;
18302;SDS011;9277;37.980;23.748;2023-07-13T14:23:22;9.77;;;5.78;;
18302;SDS011;9277;37.980;23.748;2023-07-13T14:25:49;10.55;;;6.07;;
18302;SDS011;9277;37.980;23.748;2023-07-13T14:28:20;8.60;;;6.10;;
18302;SDS011;9277;37.980;23.748;2023-07-13T14:30:48;9.98;;;6.38;;
18302;SDS011;9277;37.980;23.748;2023-07-13T14:33:15;11.35;;;6.82;;
18302;SDS011;9277;37.980;23.748;2023-07-13T14:35:41;10.20;;;6.15;;
18302;SDS011;9277;37.980;23.748;2023-07-13T14:38:08;9.35;;;6.00;;
18302;SDS011;9277;37.980;23.748;2023-07-13T14:40:38;7.70;;;5.65;;
18302;SDS011;9277;37.980;23.748;2023-07-13T14:43:03;10.15;;;5.90;;
18302;SDS011;9277;37.980;23.748;2023-07-13T14:45:30;10.32;;;6.32;;